Urb Las Campinas Ii, Puerto Rico
Current Conditions -  °F | °C
As of 11:53 AM on Sunday 21 Dec 2014 (Local Time) from TJNR Reporting Station
Clear Clear  
Wind Chill: 83°   Ceiling: Unl
Heat Index: 86°   Visibility: 10mi
Dew Point: 69°   Wind: 13mph
Humidity: 63%   Direction: 60°ENE
Pressure: 30.11"   Gusts: NA
Location:  18.1853°N, 65.8667°W
Report Text: TJNR 211553Z AUTO 06011KT 10SM CLR 28/21 A3011 RMK AO2 SLP197 T02830206 $
Loading
Personal Weather Stations






























Interactive Weather Map New forecast layout! Learn more

10-Day Weather Forecast

Advertisements
Track Severe Weather on mobile